createdAt,value
2022-12-15T00:02:03.858Z,98115.22
2022-12-15T00:08:29.280Z,98111.09
2022-12-15T00:14:49.386Z,98124.44
2022-12-15T00:21:09.948Z,98133.75
2022-12-15T00:27:30.293Z,98130.00
2022-12-15T00:33:50.811Z,98135.47
2022-12-15T00:39:59.275Z,98136.81
2022-12-15T00:46:20.552Z,98155.63
2022-12-15T00:52:41.353Z,98155.63
2022-12-15T00:59:01.650Z,98156.41
2022-12-15T01:05:22.194Z,98164.31
2022-12-15T01:11:42.744Z,98162.50
2022-12-15T01:18:03.377Z,98165.84
2022-12-15T01:24:05.732Z,98171.19
2022-12-15T01:30:10.725Z,98178.16
2022-12-15T01:36:12.656Z,98183.88
2022-12-15T01:42:14.655Z,98188.66
2022-12-15T01:48:42.026Z,98184.28
2022-12-15T01:54:54.399Z,98188.16
2022-12-15T02:00:56.768Z,98195.31
2022-12-15T02:06:58.678Z,98204.25
2022-12-15T02:13:23.979Z,98206.63
2022-12-15T02:19:58.868Z,98208.81
2022-12-15T02:26:33.951Z,98222.94
2022-12-15T02:32:58.307Z,98227.81
2022-12-15T02:39:00.201Z,98242.34
2022-12-15T02:45:11.235Z,98247.97
2022-12-15T02:51:48.132Z,98241.50
2022-12-15T02:58:19.827Z,98249.22
2022-12-15T03:04:22.899Z,98255.56
2022-12-15T03:10:26.218Z,98257.41
2022-12-15T03:16:28.145Z,98263.75
2022-12-15T03:22:30.219Z,98259.16
2022-12-15T03:28:33.767Z,98264.78
2022-12-15T03:34:35.698Z,98280.13
2022-12-15T03:40:37.590Z,98285.66
2022-12-15T03:46:39.463Z,98281.50
2022-12-15T03:52:41.850Z,98265.41
2022-12-15T03:58:44.032Z,98281.41
2022-12-15T04:04:45.923Z,98302.91
2022-12-15T04:10:48.022Z,98314.41
2022-12-15T04:16:49.967Z,98312.41
2022-12-15T04:22:52.061Z,98311.66
2022-12-15T04:29:12.238Z,98315.63
2022-12-15T04:35:33.016Z,98317.84
2022-12-15T04:41:53.638Z,98312.97
2022-12-15T04:48:14.209Z,98326.03
2022-12-15T04:54:34.598Z,98323.34
2022-12-15T05:00:55.707Z,98340.47
2022-12-15T05:07:16.192Z,98346.38
2022-12-15T05:13:36.623Z,98347.44
2022-12-15T05:19:56.963Z,98347.88
2022-12-15T05:26:18.012Z,98355.81
2022-12-15T05:32:19.878Z,98353.91
2022-12-15T05:38:21.730Z,98359.34
2022-12-15T05:44:25.618Z,98374.16
2022-12-15T05:50:27.607Z,98377.72
2022-12-15T05:56:29.613Z,98381.25
2022-12-15T06:02:31.957Z,98386.50
2022-12-15T06:08:36.280Z,98379.97
2022-12-15T06:14:38.325Z,98399.81
2022-12-15T06:20:40.202Z,98406.94
2022-12-15T06:26:42.083Z,98412.75
2022-12-15T06:32:44.050Z,98426.72
2022-12-15T06:38:50.078Z,98437.03
2022-12-15T06:44:52.092Z,98441.34
2022-12-15T06:50:54.439Z,98443.31
2022-12-15T06:56:56.444Z,98445.00
2022-12-15T07:02:58.379Z,98448.06
2022-12-15T07:09:00.344Z,98446.41
2022-12-15T07:15:02.980Z,98457.75
2022-12-15T07:21:09.140Z,98479.47
2022-12-15T07:27:11.019Z,98487.47
2022-12-15T07:33:12.928Z,98495.63
2022-12-15T07:39:15.980Z,98487.41
2022-12-15T07:45:17.950Z,98497.34
2022-12-15T07:51:20.861Z,98500.19
2022-12-15T07:57:23.611Z,98513.34
2022-12-15T08:03:25.640Z,98508.19
2022-12-15T08:09:27.589Z,98521.59
2022-12-15T08:15:29.467Z,98520.84
2022-12-15T08:21:33.152Z,98529.75
2022-12-15T08:27:35.789Z,98529.09
2022-12-15T08:33:38.271Z,98537.34
2022-12-15T08:39:40.223Z,98530.88
2022-12-15T08:45:42.903Z,98538.56
2022-12-15T08:51:44.813Z,98531.31
2022-12-15T08:57:46.701Z,98534.16
2022-12-15T09:03:50.419Z,98547.28
2022-12-15T09:09:52.463Z,98552.81
2022-12-15T09:16:09.778Z,98566.44
2022-12-15T09:22:12.536Z,98571.31
2022-12-15T09:28:14.884Z,98570.97
2022-12-15T09:34:17.027Z,98570.44
2022-12-15T09:40:19.439Z,98578.38
2022-12-15T09:46:28.234Z,98584.13
2022-12-15T09:52:49.684Z,98577.53
2022-12-15T09:59:21.900Z,98592.03
2022-12-15T10:06:16.004Z,98598.88
2022-12-15T10:12:29.710Z,98586.72
2022-12-15T10:18:41.365Z,98589.72
2022-12-15T10:31:25.760Z,98606.00
2022-12-15T10:37:27.700Z,98600.94
2022-12-15T10:43:44.113Z,98596.31
2022-12-15T10:49:50.214Z,98600.09
2022-12-15T10:56:03.156Z,98611.84
2022-12-15T11:02:32.891Z,98610.38
2022-12-15T11:08:35.269Z,98608.97
2022-12-15T11:14:51.262Z,98609.03
2022-12-15T11:21:28.043Z,98610.56
2022-12-15T11:27:38.878Z,98601.78
2022-12-15T11:33:40.770Z,98607.38
2022-12-15T11:40:16.612Z,98607.28
2022-12-15T11:46:30.564Z,98601.31
2022-12-15T11:53:05.914Z,98593.84
2022-12-15T11:59:49.367Z,98586.66
2022-12-15T12:06:32.540Z,98577.81
2022-12-15T12:13:04.523Z,98575.28
2022-12-15T12:19:27.638Z,98576.72
2022-12-15T12:25:37.846Z,98579.34
2022-12-15T12:32:05.078Z,98572.03
2022-12-15T12:38:11.699Z,98567.84
2022-12-15T12:44:37.662Z,98561.16
2022-12-15T12:50:39.641Z,98572.34
2022-12-15T12:56:48.669Z,98564.28
2022-12-15T13:02:52.389Z,98570.66
2022-12-15T13:08:55.848Z,98562.59
2022-12-15T13:14:59.032Z,98546.53
2022-12-15T13:21:42.689Z,98548.50
2022-12-15T13:27:52.983Z,98540.06
2022-12-15T13:34:25.523Z,98530.38
2022-12-15T13:40:36.574Z,98513.66
2022-12-15T13:46:39.316Z,98514.06
2022-12-15T13:53:18.982Z,98521.22
2022-12-15T13:59:41.165Z,98524.50
2022-12-15T14:05:59.110Z,98522.06
2022-12-15T14:12:04.455Z,98522.25
2022-12-15T14:18:06.522Z,98517.22
2022-12-15T14:24:45.081Z,98526.88
2022-12-15T14:30:48.948Z,98539.59
2022-12-15T14:36:55.014Z,98535.00
2022-12-15T14:42:57.186Z,98532.41
2022-12-15T14:49:04.942Z,98524.91
2022-12-15T14:55:27.828Z,98510.38
2022-12-15T15:01:40.889Z,98505.28
2022-12-15T15:07:45.979Z,98509.59
2022-12-15T15:13:48.155Z,98502.78
2022-12-15T15:19:59.122Z,98504.91
2022-12-15T15:26:10.356Z,98498.09
2022-12-15T15:32:12.114Z,98495.09
2022-12-15T15:38:26.894Z,98506.53
2022-12-15T15:44:28.776Z,98502.59
2022-12-15T15:50:30.858Z,98499.41
2022-12-15T15:56:32.856Z,98511.03
2022-12-15T16:02:34.965Z,98516.03
2022-12-15T16:08:37.632Z,98524.56
2022-12-15T16:14:39.504Z,98530.88
2022-12-15T16:20:44.242Z,98536.44
2022-12-15T16:26:50.300Z,98531.81
2022-12-15T16:32:53.657Z,98552.47
2022-12-15T16:38:57.480Z,98561.41
2022-12-15T16:44:59.918Z,98559.72
2022-12-15T16:51:02.571Z,98570.78
2022-12-15T16:57:06.246Z,98572.91
2022-12-15T17:03:16.895Z,98569.69
2022-12-15T17:09:23.996Z,98564.44
2022-12-15T17:15:27.691Z,98564.22
2022-12-15T17:21:33.940Z,98571.31
2022-12-15T17:27:35.855Z,98572.75
2022-12-15T17:33:37.795Z,98569.41
2022-12-15T17:39:40.821Z,98582.69
2022-12-15T17:45:42.979Z,98583.53
2022-12-15T17:51:45.995Z,98583.34
2022-12-15T17:57:48.389Z,98591.84
2022-12-15T18:03:51.195Z,98596.22
2022-12-15T18:09:53.591Z,98611.38
2022-12-15T18:15:56.821Z,98622.47
2022-12-15T18:21:58.773Z,98611.47
2022-12-15T18:28:00.639Z,98617.69
2022-12-15T18:34:04.754Z,98635.03
2022-12-15T18:40:15.861Z,98626.28
2022-12-15T18:46:20.261Z,98639.44
2022-12-15T18:52:27.575Z,98615.16
2022-12-15T18:58:36.609Z,98611.06
2022-12-15T19:04:38.483Z,98602.47
2022-12-15T19:10:53.665Z,98593.56
2022-12-15T19:17:13.829Z,98574.28
2022-12-15T19:23:16.764Z,98576.28
2022-12-15T19:29:21.926Z,98575.59
2022-12-15T19:35:25.035Z,98584.13
2022-12-15T19:41:27.023Z,98578.41
2022-12-15T19:47:30.131Z,98580.81
2022-12-15T19:53:32.379Z,98589.97
2022-12-15T19:59:34.681Z,98584.38
2022-12-15T20:05:36.878Z,98575.19
2022-12-15T20:11:38.836Z,98586.56
2022-12-15T20:17:40.770Z,98582.41
2022-12-15T20:24:13.894Z,98578.06
2022-12-15T20:30:22.899Z,98570.09
2022-12-15T20:36:29.762Z,98564.56
2022-12-15T20:42:31.665Z,98572.19
2022-12-15T20:48:36.744Z,98576.25
2022-12-15T20:54:38.751Z,98574.69
2022-12-15T21:00:41.150Z,98584.81
2022-12-15T21:06:44.423Z,98571.66
2022-12-15T21:12:50.496Z,98570.66
2022-12-15T21:25:25.911Z,98583.56
2022-12-15T21:31:27.919Z,98580.47
2022-12-15T21:37:30.933Z,98579.31
2022-12-15T21:43:35.730Z,98576.16
2022-12-15T21:49:37.599Z,98577.09
2022-12-15T21:55:41.081Z,98579.59
2022-12-15T22:01:43.613Z,98592.59
2022-12-15T22:07:46.055Z,98591.97
2022-12-15T22:13:49.779Z,98590.69
2022-12-15T22:19:51.707Z,98589.34
2022-12-15T22:25:56.003Z,98598.19
2022-12-15T22:31:58.199Z,98620.53
2022-12-15T22:38:00.088Z,98619.59
2022-12-15T22:44:02.825Z,98614.91
2022-12-15T22:50:06.884Z,98609.94
2022-12-15T22:56:30.855Z,98608.75
2022-12-15T23:02:37.575Z,98597.25
2022-12-15T23:08:39.480Z,98591.56
2022-12-15T23:14:59.608Z,98601.63
2022-12-15T23:21:01.779Z,98608.47
2022-12-15T23:27:03.779Z,98602.91
2022-12-15T23:33:05.867Z,98602.63
2022-12-15T23:39:07.755Z,98601.25
2022-12-15T23:45:11.188Z,98610.81
2022-12-15T23:51:16.953Z,98606.69
2022-12-15T23:57:18.818Z,98619.41
